createdAt,value
2023-08-13T00:00:17.825Z,7.30
2023-08-13T00:02:44.904Z,6.00
2023-08-13T00:05:11.840Z,6.82
2023-08-13T00:07:39.964Z,7.70
2023-08-13T00:10:06.910Z,6.45
2023-08-13T00:12:33.477Z,5.60
2023-08-13T00:15:01.589Z,6.63
2023-08-13T00:17:28.128Z,8.15
2023-08-13T00:19:54.647Z,6.95
2023-08-13T00:22:22.988Z,7.03
2023-08-13T00:24:51.508Z,7.57
2023-08-13T00:27:18.077Z,6.75
2023-08-13T00:29:44.871Z,6.53
2023-08-13T00:34:37.906Z,5.22
2023-08-13T00:37:04.492Z,5.95
2023-08-13T00:39:30.963Z,6.43
2023-08-13T00:41:57.554Z,6.00
2023-08-13T00:44:24.746Z,6.82
2023-08-13T00:46:51.622Z,7.10
2023-08-13T00:49:18.225Z,5.78
2023-08-13T00:51:44.749Z,7.85
2023-08-13T00:54:11.468Z,6.63
2023-08-13T00:56:38.161Z,6.65
2023-08-13T00:59:05.696Z,6.20
2023-08-13T01:01:32.403Z,6.03
2023-08-13T01:03:59.079Z,6.47
2023-08-13T01:06:50.796Z,6.82
2023-08-13T01:09:28.160Z,6.72
2023-08-13T01:12:10.640Z,6.53
2023-08-13T01:14:56.748Z,6.32
2023-08-13T01:17:26.063Z,5.28
2023-08-13T01:19:53.104Z,5.40
2023-08-13T01:22:26.039Z,6.18
2023-08-13T01:24:52.554Z,6.25
2023-08-13T01:27:28.938Z,6.15
2023-08-13T01:30:27.807Z,6.13
2023-08-13T01:33:05.078Z,6.32
2023-08-13T01:35:33.715Z,6.22
2023-08-13T01:38:01.560Z,5.60
2023-08-13T01:40:28.200Z,6.00
2023-08-13T01:42:55.383Z,6.78
2023-08-13T01:45:22.356Z,5.43
2023-08-13T01:47:49.784Z,7.20
2023-08-13T01:50:16.392Z,7.40
2023-08-13T01:52:42.864Z,5.63
2023-08-13T01:55:09.670Z,5.78
2023-08-13T01:57:36.294Z,5.53
2023-08-13T02:00:03.026Z,5.90
2023-08-13T02:02:29.556Z,5.95
2023-08-13T02:04:56.131Z,6.28
2023-08-13T02:07:22.611Z,6.30
2023-08-13T02:09:49.197Z,5.78
2023-08-13T02:12:15.715Z,7.15
2023-08-13T02:14:42.522Z,5.82
2023-08-13T02:19:41.296Z,7.32
2023-08-13T02:22:08.787Z,6.93
2023-08-13T02:24:35.345Z,6.35
2023-08-13T02:27:02.062Z,7.43
2023-08-13T02:29:28.620Z,8.45
2023-08-13T02:31:55.153Z,8.00
2023-08-13T02:34:23.759Z,6.72
2023-08-13T02:36:50.700Z,5.57
2023-08-13T02:39:17.459Z,6.72
2023-08-13T02:41:44.040Z,6.80
2023-08-13T02:44:10.794Z,7.65
2023-08-13T02:46:37.287Z,5.78
2023-08-13T02:49:03.932Z,7.57
2023-08-13T02:51:30.542Z,5.70
2023-08-13T02:53:57.082Z,5.50
2023-08-13T02:56:23.557Z,6.80
2023-08-13T02:58:50.051Z,6.00
2023-08-13T03:01:16.580Z,6.80
2023-08-13T03:03:52.023Z,4.90
2023-08-13T03:06:23.910Z,5.88
2023-08-13T03:08:50.590Z,4.97
2023-08-13T03:11:17.987Z,7.07
2023-08-13T03:13:45.099Z,6.07
2023-08-13T03:16:11.769Z,8.13
2023-08-13T03:18:38.463Z,7.10
2023-08-13T03:21:05.021Z,5.50
2023-08-13T03:23:33.633Z,6.90
2023-08-13T03:26:01.471Z,6.22
2023-08-13T03:28:27.973Z,6.60
2023-08-13T03:31:02.036Z,6.18
2023-08-13T03:33:28.594Z,7.78
2023-08-13T03:35:55.131Z,6.95
2023-08-13T03:38:21.716Z,7.88
2023-08-13T03:40:48.222Z,6.20
2023-08-13T03:43:14.706Z,5.93
2023-08-13T03:45:42.591Z,6.45
2023-08-13T03:48:09.169Z,6.65
2023-08-13T03:50:35.668Z,6.15
2023-08-13T03:53:02.164Z,7.68
2023-08-13T03:55:28.681Z,7.00
2023-08-13T03:57:55.265Z,5.38
2023-08-13T04:00:21.867Z,6.03
2023-08-13T04:02:51.619Z,6.70
2023-08-13T04:05:18.429Z,7.15
2023-08-13T04:07:44.963Z,6.20
2023-08-13T04:10:11.505Z,6.90
2023-08-13T04:12:38.012Z,7.03
2023-08-13T04:15:04.912Z,6.60
2023-08-13T04:19:58.337Z,8.30
2023-08-13T04:22:24.789Z,7.68
2023-08-13T04:24:51.820Z,7.68
2023-08-13T04:27:18.991Z,6.00
2023-08-13T04:29:45.826Z,7.60
2023-08-13T04:32:13.301Z,6.40
2023-08-13T04:34:40.065Z,6.30
2023-08-13T04:37:06.663Z,7.45
2023-08-13T04:39:33.766Z,7.15
2023-08-13T04:42:01.166Z,6.22
2023-08-13T04:44:27.944Z,7.95
2023-08-13T04:46:55.229Z,6.22
2023-08-13T04:49:21.873Z,8.57
2023-08-13T04:51:48.454Z,5.68
2023-08-13T04:54:14.936Z,6.97
2023-08-13T04:56:41.518Z,7.32
2023-08-13T04:59:08.074Z,6.38
2023-08-13T05:01:34.738Z,7.38
2023-08-13T05:04:01.229Z,7.75
2023-08-13T05:06:27.821Z,6.78
2023-08-13T05:08:54.333Z,6.65
2023-08-13T05:11:20.998Z,5.97
2023-08-13T05:13:47.494Z,6.47
2023-08-13T05:16:14.079Z,5.57
2023-08-13T05:18:41.017Z,7.03
2023-08-13T05:23:34.208Z,5.57
2023-08-13T05:26:00.692Z,6.63
2023-08-13T05:28:27.322Z,6.57
2023-08-13T05:30:53.903Z,8.70
2023-08-13T05:33:20.424Z,7.05
2023-08-13T05:35:46.932Z,5.78
2023-08-13T05:38:13.482Z,7.13
2023-08-13T05:40:39.986Z,6.35
2023-08-13T05:43:06.497Z,5.55
2023-08-13T05:45:32.985Z,6.40
2023-08-13T05:47:59.521Z,6.05
2023-08-13T05:50:26.205Z,6.93
2023-08-13T05:52:52.696Z,6.40
2023-08-13T05:55:19.190Z,6.82
2023-08-13T05:57:45.727Z,5.43
2023-08-13T06:00:13.103Z,6.60
2023-08-13T06:02:40.220Z,5.72
2023-08-13T06:05:07.602Z,5.90
2023-08-13T06:07:35.207Z,5.97
2023-08-13T06:10:03.506Z,5.50
2023-08-13T06:12:30.051Z,7.78
2023-08-13T06:14:57.009Z,6.07
2023-08-13T06:17:23.738Z,8.25
2023-08-13T06:19:50.381Z,6.65
2023-08-13T06:22:17.256Z,6.88
2023-08-13T06:24:44.255Z,5.90
2023-08-13T06:29:37.400Z,7.32
2023-08-13T06:34:30.356Z,6.38
2023-08-13T06:36:58.448Z,5.88
2023-08-13T06:39:25.232Z,6.55
2023-08-13T06:41:52.001Z,5.82
2023-08-13T06:44:20.500Z,6.10
2023-08-13T06:46:50.283Z,5.70
2023-08-13T06:49:17.175Z,6.82
2023-08-13T06:51:43.976Z,7.35
2023-08-13T06:54:10.718Z,5.07
2023-08-13T06:56:38.053Z,6.22
2023-08-13T06:59:05.701Z,5.35
2023-08-13T07:01:33.051Z,5.55
2023-08-13T07:03:59.906Z,5.60
2023-08-13T07:06:26.585Z,4.30
2023-08-13T07:08:53.358Z,4.85
2023-08-13T07:11:19.956Z,4.93
2023-08-13T07:13:48.444Z,5.50
2023-08-13T07:16:15.168Z,4.90
2023-08-13T07:18:43.419Z,5.10
2023-08-13T07:21:12.560Z,4.55
2023-08-13T07:23:39.164Z,5.53
2023-08-13T07:26:06.239Z,5.22
2023-08-13T07:28:35.812Z,5.03
2023-08-13T07:31:06.145Z,5.40
2023-08-13T07:33:33.397Z,5.30
2023-08-13T07:36:01.220Z,4.65
2023-08-13T07:38:28.684Z,5.93
2023-08-13T07:40:59.752Z,6.68
2023-08-13T07:43:26.257Z,4.88
2023-08-13T07:45:53.051Z,5.97
2023-08-13T07:48:19.753Z,4.90
2023-08-13T07:50:46.471Z,4.72
2023-08-13T07:53:13.133Z,4.63
2023-08-13T07:55:39.781Z,4.82
2023-08-13T07:58:06.300Z,4.97
2023-08-13T08:00:32.912Z,4.75
2023-08-13T08:02:59.581Z,4.85
2023-08-13T08:05:26.253Z,4.88
2023-08-13T08:07:52.784Z,4.95
2023-08-13T08:10:19.542Z,5.25
2023-08-13T08:12:46.240Z,5.45
2023-08-13T08:15:12.913Z,4.75
2023-08-13T08:17:39.500Z,4.78
2023-08-13T08:20:07.758Z,4.97
2023-08-13T08:22:34.560Z,6.20
2023-08-13T08:25:01.266Z,4.63
2023-08-13T08:27:28.642Z,4.32
2023-08-13T08:29:55.300Z,5.55
2023-08-13T08:32:21.843Z,6.55
2023-08-13T08:34:48.301Z,3.75
2023-08-13T08:37:15.375Z,5.22
2023-08-13T08:39:42.741Z,4.13
2023-08-13T08:42:10.788Z,4.72
2023-08-13T08:44:41.951Z,4.30
2023-08-13T08:47:08.996Z,4.55
2023-08-13T08:49:35.802Z,4.93
2023-08-13T08:52:02.728Z,5.07
2023-08-13T08:54:29.566Z,5.47
2023-08-13T08:56:56.078Z,5.45
2023-08-13T08:59:22.761Z,4.05
2023-08-13T09:01:49.265Z,5.25
2023-08-13T09:04:16.138Z,4.72
2023-08-13T09:07:04.480Z,4.43
2023-08-13T09:09:31.878Z,3.85
2023-08-13T09:11:59.360Z,5.43
2023-08-13T09:14:26.809Z,6.53
2023-08-13T09:16:55.414Z,6.45
2023-08-13T09:19:27.131Z,4.05
2023-08-13T09:21:55.911Z,5.40
2023-08-13T09:24:37.873Z,6.40
2023-08-13T09:27:06.525Z,4.45
2023-08-13T09:29:33.415Z,6.20
2023-08-13T09:32:01.097Z,6.50
2023-08-13T09:34:28.189Z,5.85
2023-08-13T09:36:55.789Z,7.00
2023-08-13T09:39:29.855Z,5.80
2023-08-13T09:41:56.736Z,7.78
2023-08-13T09:44:27.838Z,5.85
2023-08-13T09:46:58.430Z,4.97
2023-08-13T09:49:28.678Z,5.80
2023-08-13T09:51:55.594Z,6.15
2023-08-13T09:54:53.806Z,5.07
2023-08-13T09:57:23.182Z,4.78
2023-08-13T09:59:51.250Z,5.28
2023-08-13T10:02:20.177Z,8.05
2023-08-13T10:04:47.413Z,5.40
2023-08-13T10:07:14.376Z,6.28
2023-08-13T10:09:41.954Z,4.07
2023-08-13T10:12:11.358Z,5.32
2023-08-13T10:14:39.041Z,4.65
2023-08-13T10:17:07.953Z,5.63
2023-08-13T10:19:39.643Z,4.78
2023-08-13T10:22:09.353Z,6.00
2023-08-13T10:24:36.381Z,5.10
2023-08-13T10:27:03.367Z,6.18
2023-08-13T10:29:43.182Z,5.93
2023-08-13T10:32:15.069Z,4.38
2023-08-13T10:34:51.938Z,4.55
2023-08-13T10:37:20.801Z,5.97
2023-08-13T10:40:03.947Z,4.78
2023-08-13T10:42:35.275Z,3.88
2023-08-13T10:45:01.729Z,5.25
2023-08-13T10:47:44.860Z,5.28
2023-08-13T10:50:22.479Z,5.03
2023-08-13T10:52:53.587Z,5.07
2023-08-13T10:55:23.444Z,4.82
2023-08-13T10:57:53.677Z,4.47
2023-08-13T11:00:24.178Z,5.15
2023-08-13T11:02:55.240Z,4.05
2023-08-13T11:05:23.033Z,5.57
2023-08-13T11:07:50.709Z,4.35
2023-08-13T11:10:19.282Z,4.45
2023-08-13T11:12:47.837Z,4.30
2023-08-13T11:15:15.412Z,4.63
2023-08-13T11:17:47.989Z,4.28
2023-08-13T11:20:17.506Z,4.28
2023-08-13T11:22:44.767Z,4.82
2023-08-13T11:25:12.104Z,4.32
2023-08-13T11:27:39.640Z,5.00
2023-08-13T11:30:08.996Z,4.53
2023-08-13T11:32:39.446Z,4.93
2023-08-13T11:35:13.084Z,5.22
2023-08-13T11:37:41.339Z,7.53
2023-08-13T11:40:11.764Z,6.18
2023-08-13T11:43:00.696Z,5.55
2023-08-13T11:45:29.426Z,5.13
2023-08-13T11:48:30.973Z,4.82
2023-08-13T11:51:19.722Z,4.55
2023-08-13T11:53:48.798Z,4.40
2023-08-13T11:56:17.205Z,4.07
2023-08-13T11:58:44.138Z,4.40
2023-08-13T12:01:12.316Z,3.67
2023-08-13T12:03:44.382Z,4.32
2023-08-13T12:06:12.216Z,6.38
2023-08-13T12:08:39.048Z,5.78
2023-08-13T12:11:06.879Z,4.00
2023-08-13T12:13:41.258Z,4.18
2023-08-13T12:16:07.867Z,5.18
2023-08-13T12:18:34.428Z,6.50
2023-08-13T12:21:00.892Z,5.90
2023-08-13T12:23:27.417Z,4.85
2023-08-13T12:25:53.929Z,4.32
2023-08-13T12:28:20.510Z,4.22
2023-08-13T12:30:46.983Z,5.18
2023-08-13T12:33:13.675Z,4.45
2023-08-13T12:35:40.240Z,4.80
2023-08-13T12:38:06.738Z,5.68
2023-08-13T12:40:33.280Z,4.35
2023-08-13T12:42:59.831Z,5.80
2023-08-13T12:45:26.338Z,4.72
2023-08-13T12:47:52.904Z,6.32
2023-08-13T12:50:19.495Z,4.25
2023-08-13T12:52:46.016Z,4.60
2023-08-13T12:55:12.624Z,4.97
2023-08-13T12:57:39.215Z,3.55
2023-08-13T13:00:06.611Z,5.13
2023-08-13T13:02:33.362Z,4.85
2023-08-13T13:04:59.946Z,5.43
2023-08-13T13:07:26.594Z,4.15
2023-08-13T13:09:53.136Z,3.95
2023-08-13T13:12:21.120Z,4.30
2023-08-13T13:14:47.858Z,4.20
2023-08-13T13:17:14.704Z,3.97
2023-08-13T13:19:41.309Z,5.35
2023-08-13T13:22:07.784Z,4.90
2023-08-13T13:24:34.331Z,5.50
2023-08-13T13:27:00.817Z,5.45
2023-08-13T13:29:27.312Z,3.78
2023-08-13T13:31:53.840Z,4.00
2023-08-13T13:34:20.345Z,6.00
2023-08-13T13:36:46.893Z,5.75
2023-08-13T13:39:13.404Z,4.97
2023-08-13T13:41:39.958Z,5.45
2023-08-13T13:44:06.496Z,5.00
2023-08-13T13:46:33.130Z,5.57
2023-08-13T13:48:59.717Z,4.10
2023-08-13T13:51:26.224Z,6.28
2023-08-13T13:53:52.852Z,4.38
2023-08-13T13:56:19.341Z,4.80
2023-08-13T13:58:45.838Z,4.45
2023-08-13T14:01:12.427Z,5.18
2023-08-13T14:03:39.302Z,4.65
2023-08-13T14:06:05.933Z,3.97
2023-08-13T14:08:32.439Z,5.03
2023-08-13T14:10:58.966Z,3.97
2023-08-13T14:13:25.475Z,4.43
2023-08-13T14:15:51.986Z,5.43
2023-08-13T14:18:18.476Z,4.00
2023-08-13T14:20:45.035Z,5.60
2023-08-13T14:23:11.555Z,5.88
2023-08-13T14:25:38.339Z,4.28
2023-08-13T14:28:05.158Z,4.32
2023-08-13T14:30:31.684Z,5.22
2023-08-13T14:32:58.269Z,4.65
2023-08-13T14:35:24.783Z,5.32
2023-08-13T14:37:51.389Z,3.95
2023-08-13T14:40:18.104Z,4.93
2023-08-13T14:42:44.789Z,6.28
2023-08-13T14:45:11.447Z,5.45
2023-08-13T14:47:37.991Z,4.32
2023-08-13T14:50:04.954Z,4.32
2023-08-13T14:52:31.471Z,4.65
2023-08-13T14:54:58.081Z,4.70
2023-08-13T14:57:24.585Z,4.80
2023-08-13T14:59:51.064Z,3.42
2023-08-13T15:02:17.859Z,4.13
2023-08-13T15:04:44.649Z,5.65
2023-08-13T15:07:11.254Z,4.10
2023-08-13T15:09:37.787Z,4.40
2023-08-13T15:12:04.604Z,5.28
2023-08-13T15:14:31.071Z,5.32
2023-08-13T15:16:57.638Z,5.88
2023-08-13T15:19:24.156Z,4.78
2023-08-13T15:21:50.654Z,5.53
2023-08-13T15:24:17.155Z,4.43
2023-08-13T15:26:43.653Z,4.85
2023-08-13T15:29:10.162Z,4.75
2023-08-13T15:31:36.756Z,4.32
2023-08-13T15:34:03.490Z,5.22
2023-08-13T15:36:30.056Z,5.47
2023-08-13T15:38:56.623Z,5.07
2023-08-13T15:41:23.205Z,7.10
2023-08-13T15:43:49.749Z,7.50
2023-08-13T15:46:16.342Z,4.97
2023-08-13T15:48:42.926Z,6.22
2023-08-13T15:51:09.549Z,5.20
2023-08-13T15:53:38.520Z,4.72
2023-08-13T15:56:05.219Z,5.20
2023-08-13T15:58:31.772Z,4.70
2023-08-13T16:00:58.290Z,4.75
2023-08-13T16:03:24.813Z,4.80
2023-08-13T16:05:51.995Z,4.50
2023-08-13T16:08:19.255Z,5.63
2023-08-13T16:10:46.004Z,7.43
2023-08-13T16:13:12.522Z,7.50
2023-08-13T16:15:40.190Z,6.15
2023-08-13T16:18:06.775Z,6.80
2023-08-13T16:20:33.448Z,4.82
2023-08-13T16:23:00.377Z,4.88
2023-08-13T16:25:27.087Z,4.85
2023-08-13T16:27:53.754Z,6.68
2023-08-13T16:30:20.249Z,4.28
2023-08-13T16:32:46.848Z,4.78
2023-08-13T16:35:13.610Z,4.25
2023-08-13T16:37:40.159Z,5.85
2023-08-13T16:40:07.356Z,6.65
2023-08-13T16:42:46.865Z,4.35
2023-08-13T16:45:20.366Z,4.47
2023-08-13T16:47:46.848Z,5.03
2023-08-13T16:50:15.504Z,5.18
2023-08-13T16:52:42.230Z,4.78
2023-08-13T16:55:10.265Z,6.00
2023-08-13T16:57:38.505Z,5.15
2023-08-13T17:00:10.774Z,5.20
2023-08-13T17:02:37.679Z,6.80
2023-08-13T17:05:05.500Z,7.35
2023-08-13T17:07:32.071Z,6.25
2023-08-13T17:09:58.851Z,7.28
2023-08-13T17:12:25.523Z,9.23
2023-08-13T17:14:52.116Z,8.95
2023-08-13T17:17:19.526Z,12.63
2023-08-13T17:19:46.375Z,13.30
2023-08-13T17:22:12.869Z,13.88
2023-08-13T17:24:39.347Z,13.60
2023-08-13T17:27:06.003Z,10.57
2023-08-13T17:29:32.541Z,8.75
2023-08-13T17:31:59.223Z,7.93
2023-08-13T17:34:26.044Z,8.93
2023-08-13T17:36:52.556Z,7.93
2023-08-13T17:39:19.116Z,8.25
2023-08-13T17:41:45.675Z,10.57
2023-08-13T17:44:12.157Z,7.75
2023-08-13T17:46:38.640Z,8.35
2023-08-13T17:49:05.159Z,8.73
2023-08-13T17:51:31.653Z,6.53
2023-08-13T17:53:58.107Z,6.05
2023-08-13T17:56:24.669Z,8.45
2023-08-13T17:58:56.685Z,6.95
2023-08-13T18:01:23.779Z,6.90
2023-08-13T18:03:50.866Z,6.38
2023-08-13T18:06:17.410Z,7.18
2023-08-13T18:08:48.165Z,8.65
2023-08-13T18:11:23.591Z,9.38
2023-08-13T18:13:50.642Z,9.02
2023-08-13T18:16:17.161Z,8.27
2023-08-13T18:18:43.626Z,6.90
2023-08-13T18:23:36.554Z,6.80
2023-08-13T18:28:29.520Z,6.68
2023-08-13T18:30:56.131Z,7.30
2023-08-13T18:33:22.836Z,7.70
2023-08-13T18:35:49.374Z,8.18
2023-08-13T18:38:17.756Z,7.32
2023-08-13T18:40:44.341Z,6.72
2023-08-13T18:43:10.830Z,6.68
2023-08-13T18:48:04.119Z,6.63
2023-08-13T18:50:30.762Z,8.77
2023-08-13T18:52:57.333Z,7.53
2023-08-13T18:55:23.856Z,7.25
2023-08-13T19:00:16.841Z,6.57
2023-08-13T19:02:43.422Z,7.55
2023-08-13T19:05:11.913Z,5.78
2023-08-13T19:07:38.546Z,8.23
2023-08-13T19:10:06.002Z,7.35
2023-08-13T19:12:32.624Z,6.43
2023-08-13T19:14:59.182Z,9.10
2023-08-13T19:17:25.913Z,8.02
2023-08-13T19:19:52.550Z,5.88
2023-08-13T19:22:19.342Z,6.95
2023-08-13T19:24:45.908Z,7.90
2023-08-13T19:27:12.479Z,6.82
2023-08-13T19:29:38.972Z,6.95
2023-08-13T19:34:32.583Z,6.55
2023-08-13T19:36:59.342Z,8.63
2023-08-13T19:39:26.508Z,9.23
2023-08-13T19:41:53.742Z,7.43
2023-08-13T19:44:32.312Z,6.40
2023-08-13T19:47:04.839Z,8.38
2023-08-13T19:49:31.311Z,5.75
2023-08-13T19:54:25.224Z,7.32
2023-08-13T19:59:18.896Z,7.43
2023-08-13T20:04:13.315Z,6.90
2023-08-13T20:09:07.291Z,6.65
2023-08-13T20:11:33.990Z,8.48
2023-08-13T20:14:01.101Z,8.45
2023-08-13T20:16:29.317Z,7.25
2023-08-13T20:18:55.993Z,8.23
2023-08-13T20:23:51.425Z,7.82
2023-08-13T20:26:17.944Z,7.35
2023-08-13T20:31:11.907Z,6.07
2023-08-13T20:33:39.971Z,6.53
2023-08-13T20:36:07.262Z,7.55
2023-08-13T20:38:33.995Z,8.00
2023-08-13T20:43:27.512Z,7.65
2023-08-13T20:45:54.114Z,8.20
2023-08-13T20:48:20.808Z,7.38
2023-08-13T20:50:49.283Z,7.50
2023-08-13T20:53:15.820Z,6.53
2023-08-13T20:55:42.402Z,7.60
2023-08-13T21:00:35.435Z,6.15
2023-08-13T21:05:29.894Z,6.57
2023-08-13T21:10:23.369Z,6.25
2023-08-13T21:12:49.850Z,5.57
2023-08-13T21:15:16.470Z,5.85
2023-08-13T21:17:44.020Z,6.22
2023-08-13T21:20:11.160Z,7.28
2023-08-13T21:22:37.683Z,7.07
2023-08-13T21:25:04.377Z,6.43
2023-08-13T21:27:31.972Z,6.85
2023-08-13T21:30:12.957Z,6.10
2023-08-13T21:32:40.438Z,6.22
2023-08-13T21:35:09.941Z,9.35
2023-08-13T21:37:38.188Z,8.05
2023-08-13T21:40:05.538Z,8.35
2023-08-13T21:42:32.071Z,7.70
2023-08-13T21:44:58.726Z,8.30
2023-08-13T21:49:51.737Z,6.25
2023-08-13T21:54:45.782Z,9.63
2023-08-13T21:57:12.316Z,6.88
2023-08-13T21:59:38.803Z,7.78
2023-08-13T22:02:05.399Z,6.80
2023-08-13T22:06:58.365Z,6.22
2023-08-13T22:09:24.877Z,7.30
2023-08-13T22:11:51.466Z,5.80
2023-08-13T22:16:44.402Z,7.57
2023-08-13T22:19:11.651Z,6.90
2023-08-13T22:21:38.228Z,8.23
2023-08-13T22:24:05.063Z,5.82
2023-08-13T22:26:31.619Z,7.18
2023-08-13T22:28:58.160Z,6.20
2023-08-13T22:31:25.114Z,6.72
2023-08-13T22:33:52.689Z,7.53
2023-08-13T22:36:19.324Z,7.63
2023-08-13T22:38:45.833Z,8.15
2023-08-13T22:41:12.333Z,6.78
2023-08-13T22:43:38.846Z,7.18
2023-08-13T22:46:06.765Z,5.35
2023-08-13T22:48:33.590Z,7.10
2023-08-13T22:51:00.677Z,6.68
2023-08-13T22:53:27.164Z,6.63
2023-08-13T22:55:54.101Z,6.30
2023-08-13T22:58:20.650Z,7.97
2023-08-13T23:00:47.266Z,6.18
2023-08-13T23:05:40.311Z,6.35
2023-08-13T23:08:06.829Z,7.35
2023-08-13T23:10:33.773Z,5.20
2023-08-13T23:13:00.294Z,7.28
2023-08-13T23:15:26.828Z,6.80
2023-08-13T23:17:53.445Z,5.68
2023-08-13T23:22:46.406Z,6.43
2023-08-13T23:25:12.918Z,7.40
2023-08-13T23:27:39.462Z,6.85
2023-08-13T23:30:06.907Z,7.15
2023-08-13T23:32:33.435Z,7.57
2023-08-13T23:35:00.046Z,7.65
2023-08-13T23:37:26.570Z,7.55
2023-08-13T23:39:53.085Z,7.10
2023-08-13T23:42:19.747Z,7.63
2023-08-13T23:44:46.515Z,6.72
2023-08-13T23:47:13.000Z,6.93
2023-08-13T23:49:39.522Z,6.93
2023-08-13T23:52:06.176Z,6.72
2023-08-13T23:56:59.204Z,6.43
2023-08-13T23:59:25.843Z,7.72
